sensor_id;sensor_type;location;lat;lon;timestamp;pressure;altitude;pressure_sealevel;temperature;humidity
65832;BME280;52593;42.648;23.332;2023-05-25T00:00:42;94507.50;;;13.96;86.32
65832;BME280;52593;42.648;23.332;2023-05-25T00:03:07;94515.16;;;13.93;86.30
65832;BME280;52593;42.648;23.332;2023-05-25T00:05:34;94512.28;;;13.87;86.76
65832;BME280;52593;42.648;23.332;2023-05-25T00:08:00;94520.31;;;13.81;87.00
65832;BME280;52593;42.648;23.332;2023-05-25T00:10:25;94519.03;;;13.77;87.60
65832;BME280;52593;42.648;23.332;2023-05-25T00:12:51;94525.69;;;13.74;87.97
65832;BME280;52593;42.648;23.332;2023-05-25T00:15:16;94521.75;;;13.70;88.08
65832;BME280;52593;42.648;23.332;2023-05-25T00:17:41;94523.59;;;13.69;88.19
65832;BME280;52593;42.648;23.332;2023-05-25T00:20:07;94514.06;;;13.60;88.26
65832;BME280;52593;42.648;23.332;2023-05-25T00:22:34;94526.91;;;13.65;88.60
65832;BME280;52593;42.648;23.332;2023-05-25T00:25:00;94527.72;;;13.65;88.30
65832;BME280;52593;42.648;23.332;2023-05-25T00:27:25;94518.22;;;13.69;87.23
65832;BME280;52593;42.648;23.332;2023-05-25T00:29:51;94527.16;;;13.83;87.05
65832;BME280;52593;42.648;23.332;2023-05-25T00:32:17;94519.25;;;13.75;87.42
65832;BME280;52593;42.648;23.332;2023-05-25T00:34:42;94514.28;;;13.59;88.31
65832;BME280;52593;42.648;23.332;2023-05-25T00:37:07;94525.19;;;13.50;89.03
65832;BME280;52593;42.648;23.332;2023-05-25T00:39:33;94519.41;;;13.40;90.20
65832;BME280;52593;42.648;23.332;2023-05-25T00:41:59;94528.88;;;13.36;90.63
65832;BME280;52593;42.648;23.332;2023-05-25T00:44:26;94526.34;;;13.28;91.17
65832;BME280;52593;42.648;23.332;2023-05-25T00:46:52;94532.53;;;13.22;91.59
65832;BME280;52593;42.648;23.332;2023-05-25T00:49:19;94536.63;;;13.17;92.01
65832;BME280;52593;42.648;23.332;2023-05-25T00:51:46;94531.66;;;13.14;91.98
65832;BME280;52593;42.648;23.332;2023-05-25T00:54:15;94533.50;;;13.14;91.51
65832;BME280;52593;42.648;23.332;2023-05-25T00:56:46;94538.25;;;13.12;91.60
65832;BME280;52593;42.648;23.332;2023-05-25T00:59:16;94527.91;;;13.09;91.93
65832;BME280;52593;42.648;23.332;2023-05-25T01:01:43;94532.00;;;13.05;92.33
65832;BME280;52593;42.648;23.332;2023-05-25T01:04:10;94524.16;;;13.03;92.20
65832;BME280;52593;42.648;23.332;2023-05-25T01:06:42;94531.59;;;13.01;92.58
65832;BME280;52593;42.648;23.332;2023-05-25T01:09:10;94535.16;;;13.08;92.13
65832;BME280;52593;42.648;23.332;2023-05-25T01:11:39;94543.81;;;13.10;91.77
65832;BME280;52593;42.648;23.332;2023-05-25T01:14:07;94538.63;;;13.02;92.24
65832;BME280;52593;42.648;23.332;2023-05-25T01:16:34;94540.03;;;12.98;92.13
65832;BME280;52593;42.648;23.332;2023-05-25T01:19:00;94545.59;;;12.90;92.77
65832;BME280;52593;42.648;23.332;2023-05-25T01:21:43;94544.50;;;12.84;93.05
65832;BME280;52593;42.648;23.332;2023-05-25T01:24:20;94537.03;;;12.79;93.38
65832;BME280;52593;42.648;23.332;2023-05-25T01:26:52;94531.69;;;12.79;93.87
65832;BME280;52593;42.648;23.332;2023-05-25T01:29:20;94525.88;;;12.76;94.16
65832;BME280;52593;42.648;23.332;2023-05-25T01:31:47;94536.16;;;12.72;94.11
65832;BME280;52593;42.648;23.332;2023-05-25T01:34:14;94528.31;;;12.71;93.65
65832;BME280;52593;42.648;23.332;2023-05-25T01:36:39;94532.44;;;12.66;93.55
65832;BME280;52593;42.648;23.332;2023-05-25T01:39:05;94517.75;;;12.62;93.63
65832;BME280;52593;42.648;23.332;2023-05-25T01:41:31;94517.75;;;12.62;92.52
65832;BME280;52593;42.648;23.332;2023-05-25T01:43:57;94515.75;;;12.71;93.04
65832;BME280;52593;42.648;23.332;2023-05-25T01:46:38;94509.97;;;12.74;92.36
65832;BME280;52593;42.648;23.332;2023-05-25T01:52:25;94501.44;;;12.64;92.00
65832;BME280;52593;42.648;23.332;2023-05-25T01:55:00;94501.22;;;12.59;91.85
65832;BME280;52593;42.648;23.332;2023-05-25T01:57:28;94504.53;;;12.61;92.13
65832;BME280;52593;42.648;23.332;2023-05-25T01:59:55;94501.22;;;12.59;92.08
65832;BME280;52593;42.648;23.332;2023-05-25T02:02:24;94503.00;;;12.52;92.38
65832;BME280;52593;42.648;23.332;2023-05-25T02:04:52;94498.56;;;12.65;91.32
65832;BME280;52593;42.648;23.332;2023-05-25T02:07:18;94513.19;;;12.63;91.67
65832;BME280;52593;42.648;23.332;2023-05-25T02:09:43;94509.50;;;12.64;90.60
65832;BME280;52593;42.648;23.332;2023-05-25T02:12:09;94517.75;;;12.62;90.96
65832;BME280;52593;42.648;23.332;2023-05-25T02:14:34;94514.84;;;12.57;91.12
65832;BME280;52593;42.648;23.332;2023-05-25T02:16:59;94512.94;;;12.51;91.57
65832;BME280;52593;42.648;23.332;2023-05-25T02:19:26;94517.66;;;12.49;91.94
65832;BME280;52593;42.648;23.332;2023-05-25T02:21:52;94521.53;;;12.46;92.42
65832;BME280;52593;42.648;23.332;2023-05-25T02:24:17;94532.66;;;12.43;92.31
65832;BME280;52593;42.648;23.332;2023-05-25T02:26:43;94528.75;;;12.39;92.49
65832;BME280;52593;42.648;23.332;2023-05-25T02:29:08;94536.13;;;12.37;92.92
65832;BME280;52593;42.648;23.332;2023-05-25T02:31:33;94531.94;;;12.28;93.58
65832;BME280;52593;42.648;23.332;2023-05-25T02:33:59;94540.63;;;12.30;93.54
65832;BME280;52593;42.648;23.332;2023-05-25T02:36:24;94544.72;;;12.26;94.13
65832;BME280;52593;42.648;23.332;2023-05-25T02:38:50;94547.59;;;12.24;94.33
65832;BME280;52593;42.648;23.332;2023-05-25T02:41:17;94551.88;;;12.19;93.96
65832;BME280;52593;42.648;23.332;2023-05-25T02:43:44;94555.72;;;12.09;93.51
65832;BME280;52593;42.648;23.332;2023-05-25T02:46:09;94561.22;;;12.01;94.08
65832;BME280;52593;42.648;23.332;2023-05-25T02:48:34;94561.53;;;12.13;94.60
65832;BME280;52593;42.648;23.332;2023-05-25T02:51:00;94559.25;;;12.10;94.63
65832;BME280;52593;42.648;23.332;2023-05-25T02:53:26;94562.94;;;12.09;94.56
65832;BME280;52593;42.648;23.332;2023-05-25T02:55:52;94566.19;;;12.04;94.48
65832;BME280;52593;42.648;23.332;2023-05-25T02:58:18;94566.19;;;12.04;94.60
65832;BME280;52593;42.648;23.332;2023-05-25T03:00:43;94567.03;;;12.05;94.68
65832;BME280;52593;42.648;23.332;2023-05-25T03:03:08;94573.34;;;11.97;95.09
65832;BME280;52593;42.648;23.332;2023-05-25T03:05:34;94569.22;;;11.94;95.41
65832;BME280;52593;42.648;23.332;2023-05-25T03:08:00;94565.50;;;11.95;95.58
65832;BME280;52593;42.648;23.332;2023-05-25T03:10:25;94570.66;;;11.97;95.62
65832;BME280;52593;42.648;23.332;2023-05-25T03:12:50;94574.38;;;11.96;95.58
65832;BME280;52593;42.648;23.332;2023-05-25T03:15:16;94574.28;;;11.89;95.91
65832;BME280;52593;42.648;23.332;2023-05-25T03:17:41;94575.50;;;11.87;96.08
65832;BME280;52593;42.648;23.332;2023-05-25T03:20:07;94570.34;;;11.85;96.04
65832;BME280;52593;42.648;23.332;2023-05-25T03:22:34;94576.50;;;11.86;96.23
65832;BME280;52593;42.648;23.332;2023-05-25T03:25:00;94583.16;;;11.90;96.07
65832;BME280;52593;42.648;23.332;2023-05-25T03:27:25;94574.19;;;11.98;95.66
65832;BME280;52593;42.648;23.332;2023-05-25T03:29:51;94573.72;;;11.94;95.56
65832;BME280;52593;42.648;23.332;2023-05-25T03:32:16;94581.13;;;11.92;95.35
65832;BME280;52593;42.648;23.332;2023-05-25T03:34:42;94579.09;;;11.94;96.00
65832;BME280;52593;42.648;23.332;2023-05-25T03:37:09;94583.06;;;11.98;95.98
65832;BME280;52593;42.648;23.332;2023-05-25T03:39:34;94581.66;;;12.02;95.62
65832;BME280;52593;42.648;23.332;2023-05-25T03:41:59;94583.97;;;12.05;95.41
65832;BME280;52593;42.648;23.332;2023-05-25T03:44:25;94576.78;;;12.12;95.45
65832;BME280;52593;42.648;23.332;2023-05-25T03:46:51;94577.69;;;12.20;95.29
65832;BME280;52593;42.648;23.332;2023-05-25T03:49:16;94571.75;;;12.24;94.69
65832;BME280;52593;42.648;23.332;2023-05-25T03:51:42;94576.53;;;12.29;94.74
65832;BME280;52593;42.648;23.332;2023-05-25T03:54:07;94576.56;;;12.36;94.61
65832;BME280;52593;42.648;23.332;2023-05-25T03:56:33;94583.41;;;12.38;94.57
65832;BME280;52593;42.648;23.332;2023-05-25T03:58:58;94577.47;;;12.43;94.58
65832;BME280;52593;42.648;23.332;2023-05-25T04:01:24;94578.16;;;12.52;94.59
65832;BME280;52593;42.648;23.332;2023-05-25T04:03:51;94579.44;;;12.56;94.41
65832;BME280;52593;42.648;23.332;2023-05-25T04:06:17;94582.19;;;12.69;94.66
65832;BME280;52593;42.648;23.332;2023-05-25T04:08:44;94590.19;;;12.91;93.16
65832;BME280;52593;42.648;23.332;2023-05-25T04:11:10;94593.78;;;13.05;92.22
65832;BME280;52593;42.648;23.332;2023-05-25T04:13:35;94600.28;;;13.17;91.12
65832;BME280;52593;42.648;23.332;2023-05-25T04:16:01;94595.88;;;13.44;89.82
65832;BME280;52593;42.648;23.332;2023-05-25T04:18:26;94598.44;;;13.59;88.52
65832;BME280;52593;42.648;23.332;2023-05-25T04:20:51;94598.69;;;13.78;87.16
65832;BME280;52593;42.648;23.332;2023-05-25T04:23:17;94599.97;;;13.88;86.63
65832;BME280;52593;42.648;23.332;2023-05-25T04:25:43;94600.63;;;13.90;86.19
65832;BME280;52593;42.648;23.332;2023-05-25T04:28:09;94603.53;;;13.96;86.59
65832;BME280;52593;42.648;23.332;2023-05-25T04:30:36;94612.63;;;13.95;87.24
65832;BME280;52593;42.648;23.332;2023-05-25T04:33:03;94612.66;;;14.08;86.36
65832;BME280;52593;42.648;23.332;2023-05-25T04:35:29;94620.72;;;14.15;86.15
65832;BME280;52593;42.648;23.332;2023-05-25T04:37:55;94627.38;;;14.25;85.63
65832;BME280;52593;42.648;23.332;2023-05-25T04:40:21;94625.53;;;14.39;84.94
65832;BME280;52593;42.648;23.332;2023-05-25T04:42:46;94626.16;;;14.48;84.80
65832;BME280;52593;42.648;23.332;2023-05-25T04:45:12;94627.88;;;14.62;83.89
65832;BME280;52593;42.648;23.332;2023-05-25T04:47:41;94624.56;;;14.74;83.15
65832;BME280;52593;42.648;23.332;2023-05-25T04:50:10;94624.16;;;14.77;83.19
65832;BME280;52593;42.648;23.332;2023-05-25T04:52:36;94621.22;;;14.85;83.14
65832;BME280;52593;42.648;23.332;2023-05-25T04:55:01;94619.56;;;14.97;82.73
65832;BME280;52593;42.648;23.332;2023-05-25T04:57:27;94623.53;;;14.95;82.72
65832;BME280;52593;42.648;23.332;2023-05-25T04:59:54;94610.03;;;15.02;81.29
65832;BME280;52593;42.648;23.332;2023-05-25T05:02:20;94606.13;;;14.84;82.31
65832;BME280;52593;42.648;23.332;2023-05-25T05:04:45;94613.19;;;14.72;83.45
65832;BME280;52593;42.648;23.332;2023-05-25T05:07:11;94606.94;;;14.65;84.00
65832;BME280;52593;42.648;23.332;2023-05-25T05:09:36;94600.97;;;14.62;84.55
65832;BME280;52593;42.648;23.332;2023-05-25T05:12:02;94605.28;;;14.90;82.96
65832;BME280;52593;42.648;23.332;2023-05-25T05:14:28;94605.88;;;14.99;83.19
65832;BME280;52593;42.648;23.332;2023-05-25T05:16:53;94607.56;;;14.93;83.07
65832;BME280;52593;42.648;23.332;2023-05-25T05:19:19;94605.47;;;14.95;83.53
65832;BME280;52593;42.648;23.332;2023-05-25T05:21:44;94604.44;;;14.96;83.78
65832;BME280;52593;42.648;23.332;2023-05-25T05:24:10;94607.13;;;15.03;84.27
65832;BME280;52593;42.648;23.332;2023-05-25T05:26:35;94613.13;;;15.12;83.34
65832;BME280;52593;42.648;23.332;2023-05-25T05:29:02;94611.25;;;15.12;82.90
65832;BME280;52593;42.648;23.332;2023-05-25T05:31:28;94614.16;;;15.11;82.89
65832;BME280;52593;42.648;23.332;2023-05-25T05:33:54;94616.44;;;15.14;83.33
65832;BME280;52593;42.648;23.332;2023-05-25T05:36:19;94616.19;;;15.29;82.33
65832;BME280;52593;42.648;23.332;2023-05-25T05:38:45;94621.56;;;15.42;81.62
65832;BME280;52593;42.648;23.332;2023-05-25T05:41:11;94622.34;;;15.49;81.92
65832;BME280;52593;42.648;23.332;2023-05-25T05:43:40;94628.78;;;15.55;81.93
65832;BME280;52593;42.648;23.332;2023-05-25T05:46:08;94621.06;;;15.59;82.28
65832;BME280;52593;42.648;23.332;2023-05-25T05:48:35;94627.94;;;15.61;82.30
65832;BME280;52593;42.648;23.332;2023-05-25T05:51:01;94627.09;;;15.61;81.48
65832;BME280;52593;42.648;23.332;2023-05-25T05:53:26;94632.25;;;15.82;81.08
65832;BME280;52593;42.648;23.332;2023-05-25T05:55:52;94634.72;;;15.84;80.77
65832;BME280;52593;42.648;23.332;2023-05-25T05:58:23;94639.09;;;15.78;80.78
65832;BME280;52593;42.648;23.332;2023-05-25T06:00:51;94636.81;;;15.82;80.67
65832;BME280;52593;42.648;23.332;2023-05-25T06:03:17;94636.59;;;15.83;80.25
65832;BME280;52593;42.648;23.332;2023-05-25T06:05:42;94635.53;;;15.84;79.55
65832;BME280;52593;42.648;23.332;2023-05-25T06:08:07;94634.28;;;15.87;80.34
65832;BME280;52593;42.648;23.332;2023-05-25T06:10:34;94631.13;;;16.03;78.65
65832;BME280;52593;42.648;23.332;2023-05-25T06:13:00;94636.31;;;15.98;78.43
65832;BME280;52593;42.648;23.332;2023-05-25T06:15:25;94635.97;;;15.88;78.79
65832;BME280;52593;42.648;23.332;2023-05-25T06:17:50;94631.53;;;16.00;79.41
65832;BME280;52593;42.648;23.332;2023-05-25T06:20:16;94621.88;;;16.18;78.87
65832;BME280;52593;42.648;23.332;2023-05-25T06:22:41;94624.91;;;16.35;77.97
65832;BME280;52593;42.648;23.332;2023-05-25T06:25:07;94628.47;;;16.61;76.25
65832;BME280;52593;42.648;23.332;2023-05-25T06:27:34;94639.78;;;16.76;75.36
65832;BME280;52593;42.648;23.332;2023-05-25T06:30:00;94633.72;;;16.81;75.68
65832;BME280;52593;42.648;23.332;2023-05-25T06:32:25;94640.81;;;16.75;74.74
65832;BME280;52593;42.648;23.332;2023-05-25T06:34:50;94638.09;;;16.82;74.54
65832;BME280;52593;42.648;23.332;2023-05-25T06:37:16;94634.19;;;17.03;73.66
65832;BME280;52593;42.648;23.332;2023-05-25T06:39:41;94638.06;;;16.88;74.92
65832;BME280;52593;42.648;23.332;2023-05-25T06:42:08;94635.88;;;17.22;73.70
65832;BME280;52593;42.648;23.332;2023-05-25T06:44:33;94638.25;;;17.37;72.21
65832;BME280;52593;42.648;23.332;2023-05-25T06:46:59;94644.38;;;17.26;71.02
65832;BME280;52593;42.648;23.332;2023-05-25T06:49:25;94635.59;;;17.31;71.85
65832;BME280;52593;42.648;23.332;2023-05-25T06:51:50;94644.69;;;17.36;71.10
65832;BME280;52593;42.648;23.332;2023-05-25T06:54:16;94640.41;;;17.47;70.71
65832;BME280;52593;42.648;23.332;2023-05-25T06:56:41;94640.19;;;17.67;69.82
65832;BME280;52593;42.648;23.332;2023-05-25T06:59:06;94650.06;;;17.80;70.04
65832;BME280;52593;42.648;23.332;2023-05-25T07:01:32;94646.22;;;17.88;69.93
65832;BME280;52593;42.648;23.332;2023-05-25T07:03:57;94646.78;;;17.96;70.88
65832;BME280;52593;42.648;23.332;2023-05-25T07:06:22;94643.69;;;17.93;69.93
65832;BME280;52593;42.648;23.332;2023-05-25T07:08:48;94642.03;;;18.10;69.96
65832;BME280;52593;42.648;23.332;2023-05-25T07:11:13;94634.81;;;18.04;70.35
65832;BME280;52593;42.648;23.332;2023-05-25T07:13:39;94631.66;;;18.07;70.64
65832;BME280;52593;42.648;23.332;2023-05-25T07:16:05;94634.03;;;18.46;71.17
65832;BME280;52593;42.648;23.332;2023-05-25T07:18:30;94625.09;;;18.15;70.47
65832;BME280;52593;42.648;23.332;2023-05-25T07:20:55;94631.41;;;18.39;70.96
65832;BME280;52593;42.648;23.332;2023-05-25T07:23:21;94627.09;;;18.50;69.60
65832;BME280;52593;42.648;23.332;2023-05-25T07:25:46;94628.22;;;18.84;69.75
65832;BME280;52593;42.648;23.332;2023-05-25T07:28:12;94637.88;;;18.80;69.44
65832;BME280;52593;42.648;23.332;2023-05-25T07:30:39;94641.47;;;18.93;70.82
65832;BME280;52593;42.648;23.332;2023-05-25T07:33:04;94642.84;;;18.83;69.55
65832;BME280;52593;42.648;23.332;2023-05-25T07:35:29;94638.19;;;19.02;67.92
65832;BME280;52593;42.648;23.332;2023-05-25T07:37:58;94644.28;;;18.86;68.23
65832;BME280;52593;42.648;23.332;2023-05-25T07:40:24;94638.13;;;18.79;68.29
65832;BME280;52593;42.648;23.332;2023-05-25T07:42:49;94639.28;;;19.13;68.71
65832;BME280;52593;42.648;23.332;2023-05-25T07:45:15;94639.16;;;19.43;67.47
65832;BME280;52593;42.648;23.332;2023-05-25T07:47:41;94639.28;;;19.13;67.69
65832;BME280;52593;42.648;23.332;2023-05-25T07:50:06;94639.28;;;19.13;67.48
65832;BME280;52593;42.648;23.332;2023-05-25T07:52:32;94642.34;;;19.29;67.98
65832;BME280;52593;42.648;23.332;2023-05-25T07:54:57;94646.00;;;18.80;68.31
65832;BME280;52593;42.648;23.332;2023-05-25T07:57:23;94640.94;;;18.72;69.21
65832;BME280;52593;42.648;23.332;2023-05-25T07:59:49;94654.09;;;18.57;66.96
65832;BME280;52593;42.648;23.332;2023-05-25T08:02:14;94654.16;;;18.38;67.61
65832;BME280;52593;42.648;23.332;2023-05-25T08:04:40;94651.97;;;18.28;68.50
65832;BME280;52593;42.648;23.332;2023-05-25T08:07:05;94658.94;;;18.36;68.48
65832;BME280;52593;42.648;23.332;2023-05-25T08:09:31;94659.59;;;18.20;68.67
65832;BME280;52593;42.648;23.332;2023-05-25T08:11:56;94663.22;;;18.13;69.23
65832;BME280;52593;42.648;23.332;2023-05-25T08:14:21;94670.97;;;18.10;69.62
65832;BME280;52593;42.648;23.332;2023-05-25T08:16:48;94680.44;;;18.00;70.64
65832;BME280;52593;42.648;23.332;2023-05-25T08:19:13;94687.00;;;17.93;71.66
65832;BME280;52593;42.648;23.332;2023-05-25T08:21:39;94687.72;;;17.63;73.92
65832;BME280;52593;42.648;23.332;2023-05-25T08:24:05;94698.28;;;17.46;74.87
65832;BME280;52593;42.648;23.332;2023-05-25T08:26:32;94700.50;;;17.31;75.51
65832;BME280;52593;42.648;23.332;2023-05-25T08:29:03;94709.72;;;17.23;75.79
65832;BME280;52593;42.648;23.332;2023-05-25T08:31:32;94711.69;;;17.09;75.80
65832;BME280;52593;42.648;23.332;2023-05-25T08:33:58;94716.66;;;16.87;76.48
65832;BME280;52593;42.648;23.332;2023-05-25T08:36:24;94711.94;;;16.69;78.31
65832;BME280;52593;42.648;23.332;2023-05-25T08:38:50;94718.94;;;16.45;80.13
65832;BME280;52593;42.648;23.332;2023-05-25T08:41:16;94724.22;;;16.26;79.28
65832;BME280;52593;42.648;23.332;2023-05-25T08:43:44;94729.00;;;16.24;80.85
65832;BME280;52593;42.648;23.332;2023-05-25T08:46:10;94735.91;;;16.13;81.46
65832;BME280;52593;42.648;23.332;2023-05-25T08:48:36;94740.06;;;16.09;82.17
65832;BME280;52593;42.648;23.332;2023-05-25T08:51:07;94741.78;;;16.03;83.17
65832;BME280;52593;42.648;23.332;2023-05-25T08:53:37;94743.63;;;16.03;84.39
65832;BME280;52593;42.648;23.332;2023-05-25T08:56:09;94746.97;;;16.05;83.72
65832;BME280;52593;42.648;23.332;2023-05-25T08:58:39;94742.41;;;15.99;83.35
65832;BME280;52593;42.648;23.332;2023-05-25T09:01:08;94745.53;;;15.96;85.53
65832;BME280;52593;42.648;23.332;2023-05-25T09:03:34;94750.28;;;15.94;84.82
65832;BME280;52593;42.648;23.332;2023-05-25T09:06:01;94752.38;;;15.92;84.58
65832;BME280;52593;42.648;23.332;2023-05-25T09:08:27;94757.16;;;15.96;84.85
65832;BME280;52593;42.648;23.332;2023-05-25T09:10:54;94764.00;;;15.99;87.13
65832;BME280;52593;42.648;23.332;2023-05-25T09:13:20;94755.44;;;16.09;84.71
65832;BME280;52593;42.648;23.332;2023-05-25T09:15:46;94749.06;;;15.83;85.13
65832;BME280;52593;42.648;23.332;2023-05-25T09:18:12;94754.47;;;15.90;84.84
65832;BME280;52593;42.648;23.332;2023-05-25T09:20:38;94756.31;;;15.76;83.81
65832;BME280;52593;42.648;23.332;2023-05-25T09:23:04;94751.59;;;15.51;84.56
65832;BME280;52593;42.648;23.332;2023-05-25T09:25:30;94759.91;;;15.43;85.61
65832;BME280;52593;42.648;23.332;2023-05-25T09:27:56;94757.00;;;15.38;87.69
65832;BME280;52593;42.648;23.332;2023-05-25T09:30:25;94753.66;;;15.36;88.47
65832;BME280;52593;42.648;23.332;2023-05-25T09:33:11;94746.22;;;15.38;87.50
65832;BME280;52593;42.648;23.332;2023-05-25T09:35:38;94744.34;;;15.38;89.36
65832;BME280;52593;42.648;23.332;2023-05-25T09:38:04;94751.19;;;15.47;90.23
65832;BME280;52593;42.648;23.332;2023-05-25T09:40:33;94748.28;;;15.62;86.19
65832;BME280;52593;42.648;23.332;2023-05-25T09:43:01;94735.78;;;15.68;87.50
65832;BME280;52593;42.648;23.332;2023-05-25T09:45:26;94734.97;;;15.81;88.12
65832;BME280;52593;42.648;23.332;2023-05-25T09:47:55;94727.44;;;16.03;88.71
65832;BME280;52593;42.648;23.332;2023-05-25T09:50:21;94724.44;;;16.25;88.66
65832;BME280;52593;42.648;23.332;2023-05-25T09:52:47;94720.66;;;16.32;83.56
65832;BME280;52593;42.648;23.332;2023-05-25T09:55:13;94722.47;;;16.45;83.80
65832;BME280;52593;42.648;23.332;2023-05-25T09:57:40;94709.13;;;16.57;80.58
65832;BME280;52593;42.648;23.332;2023-05-25T10:00:05;94711.50;;;16.79;79.62
65832;BME280;52593;42.648;23.332;2023-05-25T10:02:32;94709.28;;;17.01;78.21
65832;BME280;52593;42.648;23.332;2023-05-25T10:04:58;94707.84;;;17.23;78.42
65832;BME280;52593;42.648;23.332;2023-05-25T10:07:24;94702.47;;;17.42;77.84
65832;BME280;52593;42.648;23.332;2023-05-25T10:09:52;94706.72;;;17.75;77.18
65832;BME280;52593;42.648;23.332;2023-05-25T10:12:18;94700.56;;;17.68;75.38
65832;BME280;52593;42.648;23.332;2023-05-25T10:14:49;94701.22;;;17.44;77.28
65832;BME280;52593;42.648;23.332;2023-05-25T10:17:19;94699.59;;;17.62;78.02
65832;BME280;52593;42.648;23.332;2023-05-25T10:19:56;94687.50;;;17.64;77.94
65832;BME280;52593;42.648;23.332;2023-05-25T10:22:39;94681.41;;;17.88;74.65
65832;BME280;52593;42.648;23.332;2023-05-25T10:27:59;94692.09;;;18.20;72.53
65832;BME280;52593;42.648;23.332;2023-05-25T10:30:26;94687.69;;;18.37;74.83
65832;BME280;52593;42.648;23.332;2023-05-25T10:32:53;94681.03;;;18.21;73.12
65832;BME280;52593;42.648;23.332;2023-05-25T10:35:19;94674.88;;;18.14;74.41
65832;BME280;52593;42.648;23.332;2023-05-25T10:37:45;94672.13;;;18.32;73.64
65832;BME280;52593;42.648;23.332;2023-05-25T10:40:12;94671.25;;;18.20;73.27
65832;BME280;52593;42.648;23.332;2023-05-25T10:42:38;94656.97;;;18.13;71.78
65832;BME280;52593;42.648;23.332;2023-05-25T10:45:06;94653.91;;;17.91;72.21
65832;BME280;52593;42.648;23.332;2023-05-25T10:47:37;94650.69;;;18.31;73.07
65832;BME280;52593;42.648;23.332;2023-05-25T10:50:06;94642.94;;;18.04;71.85
65832;BME280;52593;42.648;23.332;2023-05-25T10:52:42;94636.88;;;17.83;73.28
65832;BME280;52593;42.648;23.332;2023-05-25T10:55:07;94640.72;;;17.57;73.75
65832;BME280;52593;42.648;23.332;2023-05-25T10:57:33;94637.34;;;17.62;73.37
65832;BME280;52593;42.648;23.332;2023-05-25T11:00:04;94634.19;;;17.83;73.98
65832;BME280;52593;42.648;23.332;2023-05-25T11:02:50;94628.50;;;17.92;73.69
65832;BME280;52593;42.648;23.332;2023-05-25T11:08:04;94622.25;;;17.54;74.39
65832;BME280;52593;42.648;23.332;2023-05-25T11:18:37;94634.34;;;18.07;71.44
65832;BME280;52593;42.648;23.332;2023-05-25T11:26:27;94631.03;;;18.05;72.51
65832;BME280;52593;42.648;23.332;2023-05-25T11:28:53;94638.25;;;17.93;71.86
65832;BME280;52593;42.648;23.332;2023-05-25T11:31:30;94641.50;;;18.02;70.43
65832;BME280;52593;42.648;23.332;2023-05-25T11:34:00;94634.69;;;18.29;71.05
65832;BME280;52593;42.648;23.332;2023-05-25T11:36:27;94635.06;;;18.14;69.71
65832;BME280;52593;42.648;23.332;2023-05-25T11:38:58;94633.00;;;17.98;68.08
65832;BME280;52593;42.648;23.332;2023-05-25T11:41:26;94626.84;;;17.91;68.32
65832;BME280;52593;42.648;23.332;2023-05-25T11:43:52;94628.56;;;18.04;68.53
65832;BME280;52593;42.648;23.332;2023-05-25T11:46:19;94631.69;;;17.89;69.22
65832;BME280;52593;42.648;23.332;2023-05-25T11:48:50;94633.97;;;17.85;69.83
65832;BME280;52593;42.648;23.332;2023-05-25T11:51:20;94637.97;;;17.82;69.63
65832;BME280;52593;42.648;23.332;2023-05-25T11:53:46;94634.66;;;17.99;68.46
65832;BME280;52593;42.648;23.332;2023-05-25T11:56:13;94640.53;;;17.96;68.16
65832;BME280;52593;42.648;23.332;2023-05-25T11:58:39;94636.91;;;18.02;69.46
65832;BME280;52593;42.648;23.332;2023-05-25T12:01:31;94624.84;;;18.16;69.02
65832;BME280;52593;42.648;23.332;2023-05-25T12:03:56;94631.91;;;18.17;69.17
65832;BME280;52593;42.648;23.332;2023-05-25T12:06:31;94626.38;;;18.43;68.06
65832;BME280;52593;42.648;23.332;2023-05-25T12:09:10;94627.97;;;18.62;66.16
65832;BME280;52593;42.648;23.332;2023-05-25T12:11:36;94630.22;;;18.77;66.01
65832;BME280;52593;42.648;23.332;2023-05-25T12:14:04;94628.44;;;18.71;65.72
65832;BME280;52593;42.648;23.332;2023-05-25T12:16:33;94614.72;;;19.08;64.59
65832;BME280;52593;42.648;23.332;2023-05-25T12:18:59;94624.19;;;19.41;63.79
65832;BME280;52593;42.648;23.332;2023-05-25T12:21:26;94613.38;;;19.93;63.58
65832;BME280;52593;42.648;23.332;2023-05-25T12:23:52;94612.13;;;20.13;58.94
65832;BME280;52593;42.648;23.332;2023-05-25T12:26:18;94610.66;;;19.93;60.26
65832;BME280;52593;42.648;23.332;2023-05-25T12:29:01;94594.06;;;20.19;59.22
65832;BME280;52593;42.648;23.332;2023-05-25T12:31:34;94581.91;;;20.38;55.20
65832;BME280;52593;42.648;23.332;2023-05-25T12:34:06;94582.06;;;20.94;56.80
65832;BME280;52593;42.648;23.332;2023-05-25T12:36:51;94581.38;;;21.38;53.53
65832;BME280;52593;42.648;23.332;2023-05-25T12:41:56;94568.75;;;22.15;49.60
65832;BME280;52593;42.648;23.332;2023-05-25T12:44:27;94564.38;;;22.64;49.52
65832;BME280;52593;42.648;23.332;2023-05-25T12:47:07;94566.50;;;22.56;50.35
65832;BME280;52593;42.648;23.332;2023-05-25T12:49:34;94558.13;;;22.14;47.36
65832;BME280;52593;42.648;23.332;2023-05-25T12:52:01;94544.44;;;22.08;48.13
65832;BME280;52593;42.648;23.332;2023-05-25T12:54:48;94549.63;;;22.32;48.15
65832;BME280;52593;42.648;23.332;2023-05-25T12:57:15;94541.59;;;22.80;48.54
65832;BME280;52593;42.648;23.332;2023-05-25T12:59:43;94546.78;;;22.82;46.84
65832;BME280;52593;42.648;23.332;2023-05-25T13:02:09;94543.00;;;22.28;47.18
65832;BME280;52593;42.648;23.332;2023-05-25T13:04:35;94530.88;;;22.68;45.48
65832;BME280;52593;42.648;23.332;2023-05-25T13:07:02;94518.84;;;23.02;45.87
65832;BME280;52593;42.648;23.332;2023-05-25T13:09:27;94524.09;;;23.08;47.06
65832;BME280;52593;42.648;23.332;2023-05-25T13:11:54;94522.63;;;23.33;47.09
65832;BME280;52593;42.648;23.332;2023-05-25T13:14:20;94513.31;;;22.91;47.16